Station Historical Data
Daily Summary for June 1, 2017 Units:  English    Metric   Both
« Previous Day
Next Day »
Daily Weekly Monthly Yearly Custom
  High: Low: Average:
Temperature: 65.2 °F 54.4 °F 59.6 °F
Dew Point: 51.5 °F 43.6 °F 48.2 °F
Humidity: 81% 46% 66%
Wind Speed: 17.0mph 0.0mph 4.3mph
Wind Gust: 22.0mph - -
Wind- - WSW
Pressure: 30.00 in 29.91 in -
Precipitation: 0.00 in    
Historical Graphs
 
 
Tabular Data for June 1, 2017
Time Temperature Dew Point Pressure Wind Wind Speed Wind Gust Humidity Rainfall Rate (Hourly)
00:04 57.6 °F 51.5 °F 29.91 in Calm   2.0 mph 80% 0.00 in
00:09 57.5 °F 51.4 °F 29.91 in Calm     80% 0.00 in
00:14 57.4 °F 51.3 °F 29.91 in Calm     80% 0.00 in
00:19 57.5 °F 51.4 °F 29.92 in Calm     80% 0.00 in
00:24 57.6 °F 51.5 °F 29.92 in NW 1.0 mph 3.0 mph 80% 0.00 in
00:29 58.1 °F 50.2 °F 29.92 in NW 1.0 mph 6.0 mph 75% 0.00 in
00:34 59.1 °F 49.3 °F 29.92 in NW 5.0 mph 7.0 mph 70% 0.00 in
00:39 59.7 °F 49.1 °F 29.92 in WNW 5.0 mph 12.0 mph 68% 0.00 in
00:44 60.0 °F 49.0 °F 29.92 in NNW 3.0 mph 11.0 mph 67% 0.00 in
00:49 60.0 °F 49.0 °F 29.93 in NW 2.0 mph 8.0 mph 67% 0.00 in
00:54 59.9 °F 48.9 °F 29.93 in NNW 5.0 mph 6.0 mph 67% 0.00 in
00:59 59.8 °F 48.8 °F 29.92 in NNW 3.0 mph 7.0 mph 67% 0.00 in
01:04 59.4 °F 48.4 °F 29.92 in NNW 2.0 mph 7.0 mph 67% 0.00 in
01:09 59.2 °F 48.6 °F 29.92 in Calm   1.0 mph 68% 0.00 in
01:14 59.1 °F 48.5 °F 29.93 in NW 2.0 mph 2.0 mph 68% 0.00 in
01:19 59.3 °F 48.7 °F 29.93 in Calm   3.0 mph 68% 0.00 in
01:24 59.2 °F 48.6 °F 29.93 in Calm   3.0 mph 68% 0.00 in
01:29 59.2 °F 48.6 °F 29.92 in WNW 1.0 mph 4.0 mph 68% 0.00 in
01:34 59.2 °F 48.6 °F 29.92 in WNW 1.0 mph 4.0 mph 68% 0.00 in
01:39 59.1 °F 48.5 °F 29.93 in Calm   2.0 mph 68% 0.00 in
01:44 59.2 °F 48.6 °F 29.92 in Calm     68% 0.00 in
01:49 59.0 °F 48.4 °F 29.93 in Calm   2.0 mph 68% 0.00 in
01:54 58.9 °F 48.7 °F 29.93 in Calm   1.0 mph 69% 0.00 in
01:59 58.8 °F 48.6 °F 29.93 in Calm     69% 0.00 in
02:04 58.8 °F 48.3 °F 29.93 in Calm     68% 0.00 in
02:09 58.8 °F 48.3 °F 29.93 in Calm     68% 0.00 in
02:14 58.6 °F 48.1 °F 29.93 in Calm     68% 0.00 in
02:19 58.6 °F 48.1 °F 29.93 in Calm     68% 0.00 in
02:24 58.6 °F 47.7 °F 29.93 in Calm     67% 0.00 in
02:29 58.6 °F 47.7 °F 29.93 in Calm     67% 0.00 in
02:34 58.5 °F 48.0 °F 29.93 in Calm     68% 0.00 in
02:39 58.4 °F 47.9 °F 29.93 in Calm     68% 0.00 in
02:44 58.1 °F 48.4 °F 29.93 in Calm     70% 0.00 in
02:49 57.9 °F 48.2 °F 29.93 in Calm     70% 0.00 in
02:54 57.9 °F 48.2 °F 29.93 in Calm     70% 0.00 in
02:59 57.9 °F 48.2 °F 29.93 in Calm     70% 0.00 in
03:04 58.0 °F 48.3 °F 29.93 in Calm     70% 0.00 in
03:09 57.8 °F 48.1 °F 29.93 in Calm     70% 0.00 in
03:14 57.9 °F 48.2 °F 29.92 in Calm     70% 0.00 in
03:19 57.8 °F 48.1 °F 29.93 in Calm     70% 0.00 in
03:24 58.0 °F 47.9 °F 29.92 in Calm     69% 0.00 in
03:29 58.0 °F 48.3 °F 29.92 in Calm     70% 0.00 in
03:34 57.9 °F 48.2 °F 29.92 in Calm     70% 0.00 in
03:39 57.8 °F 48.5 °F 29.93 in Calm   2.0 mph 71% 0.00 in
03:44 57.8 °F 48.5 °F 29.93 in WSW 2.0 mph 3.0 mph 71% 0.00 in
03:49 57.7 °F 48.0 °F 29.93 in WSW 3.0 mph 3.0 mph 70% 0.00 in
03:54 57.8 °F 48.1 °F 29.93 in West 1.0 mph 3.0 mph 70% 0.00 in
03:59 57.8 °F 48.1 °F 29.93 in WSW 2.0 mph 4.0 mph 70% 0.00 in
04:04 57.8 °F 48.1 °F 29.93 in SW 1.0 mph 4.0 mph 70% 0.00 in
04:09 57.6 °F 47.9 °F 29.93 in SW 1.0 mph 3.0 mph 70% 0.00 in
04:14 57.6 °F 47.9 °F 29.93 in SW 1.0 mph 3.0 mph 70% 0.00 in
04:19 57.7 °F 48.0 °F 29.93 in SW 1.0 mph 4.0 mph 70% 0.00 in
04:24 57.6 °F 47.5 °F 29.93 in WSW 2.0 mph 4.0 mph 69% 0.00 in
04:29 57.6 °F 47.5 °F 29.93 in WSW 1.0 mph 5.0 mph 69% 0.00 in
04:34 57.6 °F 47.5 °F 29.92 in WSW 2.0 mph 4.0 mph 69% 0.00 in
04:39 57.6 °F 47.5 °F 29.93 in SW 4.0 mph 6.0 mph 69% 0.00 in
04:44 57.5 °F 47.4 °F 29.93 in SW 1.0 mph 4.0 mph 69% 0.00 in
04:49 57.5 °F 47.4 °F 29.93 in SW 2.0 mph 4.0 mph 69% 0.00 in
04:54 57.5 °F 47.8 °F 29.93 in Calm   4.0 mph 70% 0.00 in
04:59 57.4 °F 48.4 °F 29.93 in WSW 2.0 mph 4.0 mph 72% 0.00 in
05:04 57.4 °F 48.4 °F 29.93 in SW 2.0 mph 5.0 mph 72% 0.00 in
05:09 57.4 °F 48.8 °F 29.93 in SW 2.0 mph 5.0 mph 73% 0.00 in
05:14 57.3 °F 48.3 °F 29.93 in SW 2.0 mph 5.0 mph 72% 0.00 in
05:19 57.2 °F 48.6 °F 29.93 in WSW 1.0 mph 4.0 mph 73% 0.00 in
05:24 57.2 °F 48.6 °F 29.93 in SW 2.0 mph 4.0 mph 73% 0.00 in
05:29 57.2 °F 48.6 °F 29.93 in SW 2.0 mph 4.0 mph 73% 0.00 in
05:34 57.2 °F 48.6 °F 29.93 in SW 1.0 mph 5.0 mph 73% 0.00 in
05:39 57.2 °F 48.6 °F 29.93 in SSW 2.0 mph 4.0 mph 73% 0.00 in
05:44 57.1 °F 48.5 °F 29.93 in SSW 2.0 mph 6.0 mph 73% 0.00 in
05:49 57.0 °F 48.4 °F 29.94 in SW 3.0 mph 5.0 mph 73% 0.00 in
05:54 57.0 °F 48.4 °F 29.94 in WSW 2.0 mph 5.0 mph 73% 0.00 in
05:59 57.1 °F 48.5 °F 29.94 in WSW 3.0 mph 6.0 mph 73% 0.00 in
06:04 57.0 °F 48.8 °F 29.94 in WSW 6.0 mph 8.0 mph 74% 0.00 in
06:09 57.1 °F 49.2 °F 29.94 in SW 4.0 mph 9.0 mph 75% 0.00 in
06:14 56.9 °F 49.4 °F 29.94 in WSW 3.0 mph 9.0 mph 76% 0.00 in
06:19 56.7 °F 49.9 °F 29.94 in WSW 2.0 mph 6.0 mph 78% 0.00 in
06:24 56.5 °F 50.4 °F 29.95 in WSW 3.0 mph 6.0 mph 80% 0.00 in
06:29 56.5 °F 50.7 °F 29.95 in WSW 4.0 mph 6.0 mph 81% 0.00 in
06:34 56.6 °F 50.8 °F 29.95 in West 1.0 mph 7.0 mph 81% 0.00 in
06:39 56.7 °F 50.9 °F 29.95 in WSW 3.0 mph 7.0 mph 81% 0.00 in
06:44 57.0 °F 50.9 °F 29.96 in WSW 3.0 mph 6.0 mph 80% 0.00 in
06:49 57.1 °F 50.0 °F 29.96 in WNW 3.0 mph 10.0 mph 77% 0.00 in
06:54 57.3 °F 49.8 °F 29.96 in West 3.0 mph 7.0 mph 76% 0.00 in
06:59 57.3 °F 49.4 °F 29.96 in West 3.0 mph 7.0 mph 75% 0.00 in
07:04 57.0 °F 49.2 °F 29.96 in WNW 6.0 mph 8.0 mph 75% 0.00 in
07:09 57.1 °F 49.6 °F 29.97 in West 4.0 mph 8.0 mph 76% 0.00 in
07:14 57.4 °F 49.2 °F 29.97 in West 3.0 mph 8.0 mph 74% 0.00 in
07:19 57.3 °F 49.1 °F 29.97 in West 4.0 mph 9.0 mph 74% 0.00 in
07:24 57.3 °F 48.7 °F 29.97 in West 5.0 mph 12.0 mph 73% 0.00 in
07:29 57.3 °F 48.3 °F 29.97 in West 5.0 mph 12.0 mph 72% 0.00 in
07:34 57.5 °F 48.5 °F 29.97 in West 3.0 mph 6.0 mph 72% 0.00 in
07:39 57.8 °F 48.8 °F 29.97 in WNW 3.0 mph 6.0 mph 72% 0.00 in
07:44 58.0 °F 48.6 °F 29.97 in WNW 3.0 mph 8.0 mph 71% 0.00 in
07:49 57.9 °F 48.6 °F 29.97 in WNW 4.0 mph 9.0 mph 71% 0.00 in
07:54 58.0 °F 48.6 °F 29.97 in WNW 4.0 mph 9.0 mph 71% 0.00 in
07:59 58.3 °F 48.9 °F 29.97 in WNW 1.0 mph 6.0 mph 71% 0.00 in
08:04 58.6 °F 48.8 °F 29.98 in WNW 3.0 mph 7.0 mph 70% 0.00 in
08:09 58.9 °F 49.5 °F 29.98 in West 2.0 mph 8.0 mph 71% 0.00 in
08:14 58.6 °F 48.5 °F 29.97 in West 4.0 mph 8.0 mph 69% 0.00 in
08:19 59.1 °F 49.7 °F 29.98 in NNW 4.0 mph 6.0 mph 71% 0.00 in
08:24 59.2 °F 48.6 °F 29.97 in WNW 5.0 mph 9.0 mph 68% 0.00 in
08:29 59.1 °F 48.5 °F 29.98 in West 6.0 mph 6.0 mph 68% 0.00 in
08:34 58.5 °F 48.0 °F 29.98 in WSW 6.0 mph 11.0 mph 68% 0.00 in
08:39 58.6 °F 48.5 °F 29.98 in West 8.0 mph 9.0 mph 69% 0.00 in
08:44 58.9 °F 48.4 °F 29.98 in West 5.0 mph 10.0 mph 68% 0.00 in
08:49 58.8 °F 48.3 °F 29.98 in West 5.0 mph 10.0 mph 68% 0.00 in
08:54 59.2 °F 48.2 °F 29.98 in West 5.0 mph 9.0 mph 67% 0.00 in
08:59 58.8 °F 47.9 °F 29.98 in West 5.0 mph 9.0 mph 67% 0.00 in
09:04 59.4 °F 48.4 °F 29.98 in West 5.0 mph 13.0 mph 67% 0.00 in
09:09 59.3 °F 48.3 °F 29.98 in WNW 3.0 mph 9.0 mph 67% 0.00 in
09:14 59.8 °F 48.8 °F 29.98 in WNW 4.0 mph 9.0 mph 67% 0.00 in
09:24 60.8 °F 49.4 °F 29.98 in West 4.0 mph 8.0 mph 66% 0.00 in
09:29 61.0 °F 49.1 °F 29.98 in West 5.0 mph 11.0 mph 65% 0.00 in
09:34 60.3 °F 48.5 °F 29.98 in Calm   11.0 mph 65% 0.00 in
09:39 60.7 °F 49.3 °F 29.98 in NW 3.0 mph 9.0 mph 66% 0.00 in
09:44 61.1 °F 48.4 °F 29.98 in WNW 6.0 mph 12.0 mph 63% 0.00 in
09:49 60.8 °F 48.5 °F 29.98 in West 7.0 mph 12.0 mph 64% 0.00 in
09:54 61.3 °F 49.0 °F 29.98 in West 5.0 mph 11.0 mph 64% 0.00 in
09:59 61.9 °F 49.6 °F 29.98 in WNW 5.0 mph 12.0 mph 64% 0.00 in
10:04 62.3 °F 49.5 °F 29.98 in WNW 5.0 mph 12.0 mph 63% 0.00 in
10:09 61.7 °F 48.5 °F 29.98 in WNW 6.0 mph 11.0 mph 62% 0.00 in
10:14 61.5 °F 48.8 °F 29.98 in West 6.0 mph 13.0 mph 63% 0.00 in
10:19 61.7 °F 48.5 °F 29.98 in West 7.0 mph 13.0 mph 62% 0.00 in
10:24 62.2 °F 49.9 °F 29.98 in West 6.0 mph 13.0 mph 64% 0.00 in
10:29 63.1 °F 49.4 °F 29.98 in West 3.0 mph 9.0 mph 61% 0.00 in
10:34 62.6 °F 49.4 °F 29.98 in West 4.0 mph 9.0 mph 62% 0.00 in
10:39 62.1 °F 48.9 °F 29.98 in WSW 3.0 mph 10.0 mph 62% 0.00 in
10:44 62.3 °F 50.0 °F 29.98 in NW 2.0 mph 10.0 mph 64% 0.00 in
10:49 62.7 °F 49.9 °F 29.98 in West 5.0 mph 10.0 mph 63% 0.00 in
10:54 62.7 °F 50.3 °F 29.98 in WSW 4.0 mph 10.0 mph 64% 0.00 in
10:59 62.1 °F 49.8 °F 29.98 in WSW 7.0 mph 11.0 mph 64% 0.00 in
11:04 61.9 °F 48.7 °F 29.98 in WNW 6.0 mph 12.0 mph 62% 0.00 in
11:09 62.1 °F 50.2 °F 29.98 in SW 9.0 mph 9.0 mph 65% 0.00 in
11:14 62.5 °F 48.9 °F 29.98 in WSW 6.0 mph 11.0 mph 61% 0.00 in
11:19 63.0 °F 49.3 °F 29.98 in WSW 6.0 mph 11.0 mph 61% 0.00 in
11:24 62.4 °F 49.2 °F 29.98 in WSW 6.0 mph 12.0 mph 62% 0.00 in
11:29 63.0 °F 49.3 °F 29.99 in WSW 7.0 mph 13.0 mph 61% 0.00 in
11:34 62.9 °F 50.1 °F 29.99 in SW 5.0 mph 15.0 mph 63% 0.00 in
11:39 62.7 °F 49.1 °F 29.99 in WSW 8.0 mph 12.0 mph 61% 0.00 in
11:44 62.6 °F 49.0 °F 29.99 in WSW 7.0 mph 12.0 mph 61% 0.00 in
11:49 62.9 °F 49.7 °F 29.99 in WSW 5.0 mph 14.0 mph 62% 0.00 in
11:54 61.8 °F 49.5 °F 29.98 in SW 6.0 mph 14.0 mph 64% 0.00 in
11:59 62.0 °F 49.3 °F 29.99 in SSW 7.0 mph 15.0 mph 63% 0.00 in
12:04 61.8 °F 49.5 °F 29.99 in SW 6.0 mph 12.0 mph 64% 0.00 in
12:09 62.7 °F 49.9 °F 29.99 in SW 7.0 mph 12.0 mph 63% 0.00 in
12:14 62.6 °F 49.8 °F 29.99 in WSW 6.0 mph 12.0 mph 63% 0.00 in
12:19 63.2 °F 50.4 °F 29.99 in WSW 6.0 mph 14.0 mph 63% 0.00 in
12:24 62.6 °F 49.4 °F 29.99 in WSW 7.0 mph 16.0 mph 62% 0.00 in
12:29 63.5 °F 51.1 °F 29.99 in WSW 8.0 mph 16.0 mph 64% 0.00 in
12:34 63.5 °F 51.1 °F 29.99 in WSW 7.0 mph 14.0 mph 64% 0.00 in
12:44 62.9 °F 50.5 °F 29.99 in WSW 7.0 mph 16.0 mph 64% 0.00 in
12:49 62.6 °F 49.0 °F 29.99 in WSW 7.0 mph 14.0 mph 61% 0.00 in
12:54 63.5 °F 51.5 °F 29.99 in NW 6.0 mph 14.0 mph 65% 0.00 in
12:59 63.7 °F 51.3 °F 29.99 in West 3.0 mph 11.0 mph 64% 0.00 in
13:04 63.8 °F 51.4 °F 29.99 in WSW 5.0 mph 12.0 mph 64% 0.00 in
13:09 63.9 °F 50.6 °F 29.99 in WSW 5.0 mph 13.0 mph 62% 0.00 in
13:14 64.4 °F 50.2 °F 29.99 in SW 3.0 mph 13.0 mph 60% 0.00 in
13:19 64.1 °F 50.4 °F 29.99 in WSW 6.0 mph 13.0 mph 61% 0.00 in
13:24 63.7 °F 50.4 °F 29.99 in SW 7.0 mph 14.0 mph 62% 0.00 in
13:29 63.9 °F 47.9 °F 29.99 in SW 7.0 mph 14.0 mph 56% 0.00 in
13:34 64.0 °F 49.4 °F 29.99 in SW 8.0 mph 16.0 mph 59% 0.00 in
13:39 64.4 °F 46.9 °F 29.99 in SW 9.0 mph 17.0 mph 53% 0.00 in
13:44 63.8 °F 48.3 °F 29.99 in SW 8.0 mph 18.0 mph 57% 0.00 in
13:49 63.6 °F 47.6 °F 29.99 in WSW 12.0 mph 21.0 mph 56% 0.00 in
13:54 63.7 °F 46.2 °F 29.99 in WSW 15.0 mph 18.0 mph 53% 0.00 in
13:59 63.2 °F 45.8 °F 29.99 in SW 11.0 mph 17.0 mph 53% 0.00 in
14:04 64.2 °F 45.7 °F 29.98 in SW 4.0 mph 14.0 mph 51% 0.00 in
14:09 64.5 °F 46.0 °F 29.98 in SW 6.0 mph 17.0 mph 51% 0.00 in
14:14 65.2 °F 45.5 °F 29.98 in SW 8.0 mph 17.0 mph 49% 0.00 in
14:19 64.9 °F 43.6 °F 29.98 in SW 7.0 mph 18.0 mph 46% 0.00 in
14:24 64.3 °F 45.3 °F 29.99 in SW 9.0 mph 19.0 mph 50% 0.00 in
14:29 62.9 °F 44.5 °F 29.98 in WSW 10.0 mph 19.0 mph 51% 0.00 in
14:34 62.9 °F 44.0 °F 29.99 in West 11.0 mph 16.0 mph 50% 0.00 in
14:39 63.9 °F 45.9 °F 29.99 in SW 11.0 mph 19.0 mph 52% 0.00 in
14:44 63.8 °F 45.3 °F 29.99 in SW 10.0 mph 21.0 mph 51% 0.00 in
14:49 63.4 °F 44.9 °F 29.99 in WSW 11.0 mph 22.0 mph 51% 0.00 in
14:54 63.2 °F 45.3 °F 30.00 in WSW 11.0 mph 22.0 mph 52% 0.00 in
14:59 63.2 °F 45.3 °F 29.99 in WSW 10.0 mph 19.0 mph 52% 0.00 in
15:04 63.7 °F 45.7 °F 29.99 in SW 7.0 mph 19.0 mph 52% 0.00 in
15:09 63.3 °F 45.4 °F 29.99 in WSW 17.0 mph 19.0 mph 52% 0.00 in
15:14 63.4 °F 46.9 °F 29.99 in WSW 10.0 mph 19.0 mph 55% 0.00 in
15:19 63.6 °F 47.1 °F 30.00 in NW 9.0 mph 19.0 mph 55% 0.00 in
15:29 64.6 °F 45.5 °F 29.99 in West 8.0 mph 18.0 mph 50% 0.00 in
15:34 63.5 °F 46.1 °F 29.99 in West 2.0 mph 17.0 mph 53% 0.00 in
15:39 63.2 °F 46.3 °F 29.99 in WSW 8.0 mph 17.0 mph 54% 0.00 in
15:44 63.9 °F 47.9 °F 29.99 in SW 10.0 mph 15.0 mph 56% 0.00 in
15:49 63.5 °F 46.1 °F 29.99 in WSW 9.0 mph 19.0 mph 53% 0.00 in
15:54 62.8 °F 47.3 °F 29.99 in WSW 11.0 mph 22.0 mph 57% 0.00 in
15:59 62.4 °F 45.5 °F 29.99 in WSW 11.0 mph 22.0 mph 54% 0.00 in
16:04 62.9 °F 47.0 °F 29.99 in WSW 9.0 mph 21.0 mph 56% 0.00 in
16:09 62.6 °F 45.2 °F 29.99 in WSW 9.0 mph 21.0 mph 53% 0.00 in
16:14 61.4 °F 46.0 °F 29.99 in WSW 13.0 mph 16.0 mph 57% 0.00 in
16:19 61.6 °F 46.7 °F 30.00 in SW 4.0 mph 18.0 mph 58% 0.00 in
16:24 62.0 °F 47.0 °F 30.00 in WSW 7.0 mph 19.0 mph 58% 0.00 in
16:29 62.7 °F 47.2 °F 30.00 in WSW 6.0 mph 10.0 mph 57% 0.00 in
16:34 63.6 °F 45.6 °F 29.99 in West 7.0 mph 19.0 mph 52% 0.00 in
16:39 62.7 °F 46.3 °F 30.00 in West 5.0 mph 11.0 mph 55% 0.00 in
16:44 61.9 °F 45.5 °F 30.00 in WSW 7.0 mph 15.0 mph 55% 0.00 in
16:49 61.1 °F 46.7 °F 30.00 in WSW 7.0 mph 16.0 mph 59% 0.00 in
16:54 62.6 °F 48.1 °F 29.99 in WSW 6.0 mph 16.0 mph 59% 0.00 in
16:59 62.3 °F 45.9 °F 29.99 in West 7.0 mph 15.0 mph 55% 0.00 in
17:04 62.3 °F 46.4 °F 30.00 in WSW 12.0 mph 19.0 mph 56% 0.00 in
17:09 61.8 °F 45.5 °F 29.99 in SW 13.0 mph 16.0 mph 55% 0.00 in
17:14 61.4 °F 46.5 °F 30.00 in WSW 8.0 mph 16.0 mph 58% 0.00 in
17:19 61.9 °F 46.0 °F 29.99 in WSW 7.0 mph 17.0 mph 56% 0.00 in
17:24 61.8 °F 46.9 °F 29.99 in WSW 7.0 mph 17.0 mph 58% 0.00 in
17:29 62.1 °F 46.2 °F 29.99 in WSW 7.0 mph 16.0 mph 56% 0.00 in
17:34 62.2 °F 47.2 °F 29.99 in WSW 6.0 mph 15.0 mph 58% 0.00 in
17:39 61.8 °F 46.4 °F 29.99 in WSW 7.0 mph 14.0 mph 57% 0.00 in
17:44 62.1 °F 46.2 °F 29.99 in West 7.0 mph 16.0 mph 56% 0.00 in
17:49 61.7 °F 45.8 °F 29.99 in SW 6.0 mph 17.0 mph 56% 0.00 in
17:54 61.1 °F 46.2 °F 29.99 in WSW 6.0 mph 19.0 mph 58% 0.00 in
17:59 60.7 °F 46.3 °F 29.99 in SSW 8.0 mph 15.0 mph 59% 0.00 in
18:04 60.5 °F 47.0 °F 29.99 in SW 5.0 mph 18.0 mph 61% 0.00 in
18:09 60.2 °F 46.7 °F 29.99 in WSW 6.0 mph 17.0 mph 61% 0.00 in
18:14 60.2 °F 47.1 °F 29.99 in WSW 7.0 mph 17.0 mph 62% 0.00 in
18:19 60.1 °F 47.0 °F 29.99 in WSW 7.0 mph 15.0 mph 62% 0.00 in
18:24 60.2 °F 47.6 °F 29.99 in WSW 7.0 mph 15.0 mph 63% 0.00 in
18:29 59.9 °F 47.3 °F 29.99 in WSW 7.0 mph 13.0 mph 63% 0.00 in
18:34 59.7 °F 47.1 °F 29.99 in WSW 7.0 mph 12.0 mph 63% 0.00 in
18:39 60.5 °F 48.3 °F 29.99 in West 4.0 mph 11.0 mph 64% 0.00 in
18:44 60.0 °F 47.4 °F 29.99 in West 6.0 mph 12.0 mph 63% 0.00 in
18:49 59.4 °F 47.6 °F 29.99 in WSW 5.0 mph 12.0 mph 65% 0.00 in
18:54 59.3 °F 47.5 °F 29.99 in WSW 5.0 mph 12.0 mph 65% 0.00 in
18:59 59.2 °F 47.8 °F 29.99 in WSW 6.0 mph 11.0 mph 66% 0.00 in
19:04 59.2 °F 48.2 °F 29.99 in West 5.0 mph 12.0 mph 67% 0.00 in
19:09 59.1 °F 48.1 °F 29.99 in SW 8.0 mph 13.0 mph 67% 0.00 in
19:14 59.1 °F 48.5 °F 29.99 in WSW 6.0 mph 13.0 mph 68% 0.00 in
19:19 59.1 °F 48.5 °F 29.99 in WSW 7.0 mph 12.0 mph 68% 0.00 in
19:24 59.2 °F 48.6 °F 29.98 in WSW 7.0 mph 13.0 mph 68% 0.00 in
19:29 59.2 °F 48.6 °F 29.98 in WSW 10.0 mph 15.0 mph 68% 0.00 in
19:34 59.1 °F 48.5 °F 29.98 in WSW 6.0 mph 13.0 mph 68% 0.00 in
19:39 59.1 °F 48.5 °F 29.98 in SW 8.0 mph 12.0 mph 68% 0.00 in
19:44 58.9 °F 48.4 °F 29.98 in WSW 6.0 mph 12.0 mph 68% 0.00 in
19:49 58.8 °F 48.3 °F 29.98 in WSW 6.0 mph 12.0 mph 68% 0.00 in
19:54 58.4 °F 48.3 °F 29.98 in WSW 5.0 mph 11.0 mph 69% 0.00 in
19:59 58.2 °F 48.5 °F 29.98 in WNW 7.0 mph 9.0 mph 70% 0.00 in
20:04 58.1 °F 48.7 °F 29.98 in WSW 8.0 mph 9.0 mph 71% 0.00 in
20:09 57.9 °F 48.6 °F 29.98 in WSW 6.0 mph 12.0 mph 71% 0.00 in
20:14 57.8 °F 48.5 °F 29.98 in WSW 5.0 mph 12.0 mph 71% 0.00 in
20:19 57.8 °F 48.5 °F 29.97 in WSW 5.0 mph 11.0 mph 71% 0.00 in
20:24 57.7 °F 48.4 °F 29.97 in WSW 5.0 mph 11.0 mph 71% 0.00 in
20:29 57.6 °F 48.6 °F 29.97 in WSW 4.0 mph 9.0 mph 72% 0.00 in
20:34 57.5 °F 48.5 °F 29.97 in West 3.0 mph 9.0 mph 72% 0.00 in
20:39 57.2 °F 48.3 °F 29.98 in WSW 3.0 mph 8.0 mph 72% 0.00 in
20:44 57.1 °F 48.5 °F 29.98 in WSW 4.0 mph 8.0 mph 73% 0.00 in
20:49 57.0 °F 48.4 °F 29.97 in WSW 4.0 mph 7.0 mph 73% 0.00 in
20:54 56.9 °F 48.3 °F 29.98 in SW 5.0 mph 9.0 mph 73% 0.00 in
20:59 56.9 °F 48.3 °F 29.98 in WSW 3.0 mph 7.0 mph 73% 0.00 in
21:04 56.8 °F 47.9 °F 29.97 in SW 4.0 mph 7.0 mph 72% 0.00 in
21:09 56.9 °F 48.0 °F 29.98 in WSW 1.0 mph 8.0 mph 72% 0.00 in
21:19 57.1 °F 47.8 °F 29.98 in SW 2.0 mph 7.0 mph 71% 0.00 in
21:24 56.8 °F 48.2 °F 29.98 in SW 2.0 mph 7.0 mph 73% 0.00 in
21:29 56.5 °F 47.9 °F 29.98 in WSW 3.0 mph 4.0 mph 73% 0.00 in
21:34 56.5 °F 47.9 °F 29.98 in SW 3.0 mph 6.0 mph 73% 0.00 in
21:39 56.5 °F 47.6 °F 29.97 in SW 7.0 mph 8.0 mph 72% 0.00 in
21:44 56.7 °F 47.8 °F 29.97 in SW 2.0 mph 7.0 mph 72% 0.00 in
21:49 56.7 °F 47.8 °F 29.97 in SW 3.0 mph 7.0 mph 72% 0.00 in
21:54 56.8 °F 48.2 °F 29.98 in WSW 2.0 mph 5.0 mph 73% 0.00 in
21:59 57.0 °F 48.1 °F 29.98 in WSW 2.0 mph 5.0 mph 72% 0.00 in
22:04 57.1 °F 47.8 °F 29.98 in WSW 2.0 mph 4.0 mph 71% 0.00 in
22:09 57.1 °F 47.4 °F 29.98 in SW 2.0 mph 3.0 mph 70% 0.00 in
22:14 57.0 °F 46.9 °F 29.98 in WSW 3.0 mph 5.0 mph 69% 0.00 in
22:19 57.1 °F 47.0 °F 29.98 in WSW 3.0 mph 6.0 mph 69% 0.00 in
22:24 57.1 °F 47.0 °F 29.97 in WSW 3.0 mph 6.0 mph 69% 0.00 in
22:29 56.9 °F 47.2 °F 29.98 in WSW 2.0 mph 3.0 mph 70% 0.00 in
22:34 56.9 °F 47.2 °F 29.98 in Calm   3.0 mph 70% 0.00 in
22:39 57.0 °F 47.7 °F 29.98 in WSW 1.0 mph 3.0 mph 71% 0.00 in
22:44 57.1 °F 47.8 °F 29.97 in Calm   2.0 mph 71% 0.00 in
22:49 56.9 °F 48.0 °F 29.98 in Calm   2.0 mph 72% 0.00 in
22:54 56.6 °F 48.0 °F 29.98 in Calm   2.0 mph 73% 0.00 in
22:59 56.5 °F 48.3 °F 29.98 in Calm   2.0 mph 74% 0.00 in
23:04 56.6 °F 48.8 °F 29.98 in Calm   1.0 mph 75% 0.00 in
23:09 56.6 °F 48.4 °F 29.98 in Calm   1.0 mph 74% 0.00 in
23:14 56.6 °F 48.8 °F 29.98 in NW 1.0 mph 4.0 mph 75% 0.00 in
23:19 56.6 °F 48.4 °F 29.98 in NNW 1.0 mph 4.0 mph 74% 0.00 in
23:24 56.4 °F 48.2 °F 29.98 in NNW 2.0 mph 3.0 mph 74% 0.00 in
23:29 56.0 °F 47.8 °F 29.98 in Calm   3.0 mph 74% 0.00 in
23:34 55.6 °F 47.8 °F 29.98 in Calm   2.0 mph 75% 0.00 in
23:39 55.3 °F 47.5 °F 29.98 in Calm   2.0 mph 75% 0.00 in
23:44 54.8 °F 47.4 °F 29.98 in Calm   1.0 mph 76% 0.00 in
23:49 54.4 °F 47.3 °F 29.99 in NNW 1.0 mph 2.0 mph 77% 0.00 in
23:54 54.4 °F 47.3 °F 29.98 in Calm   2.0 mph 77% 0.00 in
23:59 54.4 °F 47.7 °F 29.98 in Calm   1.0 mph 78% 0.00 in
Buffalo, New York, USA
Compliments of Weather Underground - 2.5 mb